Results of the Bethel Half Marathon – October 13, 2012 – Bethel, NC

Congratulations to Jason Bodnar of Candler, NC as first overall and first male. Congratulations to Hillary Williams of Cary, NC as first female. Click here for age groups. Following are overall results, courtesy of Lee Timing.

Place Name City Bib No Age Gender Age Group Total Time Pace
1 Jason Bodnar Candler NC 5 41 M 1 Open 1:19:11.8 6:03/M
2 Scott Laws Arden NC 101 40 M 1 40-44 1:25:04.6 6:30/M
3 Todd Swift Weaverville NC 171 42 M 2 40-44 1:26:25.1 6:36/M
4 Kerby Smithson Asheville NC 247 30 M 1 30-34 1:27:09.3 6:39/M
5 Todd Watson Biltmore Lake NC 192 46 M 1 45-49 1:27:27.8 6:41/M
6 Hilary Williams Cary NC 198 28 F 1 Open 1:28:53.4 6:47/M
7 Donald Witsell Candler NC 200 43 M 3 40-44 1:29:51.7 6:52/M
8 Jeff Trantham Candler NC 226 44 M 4 40-44 1:30:03.9 6:52/M
9 Lincoln Crosse Asheville NC 218 54 M 1 50-54 1:30:33.3 6:55/M
10 Rob Wesley Cookeville TN 193 22 M 1 20-24 1:30:49.4 6:56/M
11 Bill Branson Biltmore Lake NC 11 54 M 2 50-54 1:31:47.6 7:00/M
12 David Grindstaff Candler NC 68 31 M 2 30-34 1:32:38.6 7:04/M
13 Jeff Carnivale Asheville NC 24 45 M 2 45-49 1:33:10.8 7:07/M
14 Marc Hoyle Allentown PA 87 48 M 3 45-49 1:33:16.5 7:07/M
15 Mesfin Woldeyohannes Cullowhee NC 205 47 M 4 45-49 1:33:30.5 7:08/M
16 Karen Ostergaard Asheville NC 128 35 F 1 35-39 1:33:35.6 7:09/M
17 Brian Hook Asheville NC 86 47 M 5 45-49 1:34:20.4 7:12/M
18 Ginna Reid Asheville NC 240 34 F 1 30-34 1:34:34.8 7:13/M
19 Michael Henson Whittier NC 209 33 M 3 30-34 1:36:54.7 7:24/M
20 Erik Sandstedt Asheville NC 146 43 M 5 40-44 1:37:30.7 7:27/M
21 Travis McKay Asheville NC 115 31 M 4 30-34 1:37:50.4 7:28/M
22 Lowell Ball Waynesville NC 231 44 M 6 40-44 1:38:20.5 7:30/M
23 Anthony Lampros Clayton GA 99 54 M 3 50-54 1:38:41.2 7:32/M
24 Kelly Allen Asheville NC 248 44 F 1 40-44 1:39:07.9 7:34/M
25 Cynthia Smith Marion NC 261 36 F 2 35-39 1:39:12.9 7:34/M
26 John Treleaven Candler NC 235 60 M 1 60-64 1:41:57.4 7:47/M
27 Ken Miller Asheville NC 241 44 M 7 40-44 1:41:59.9 7:47/M
28 Jim Humble Asheville NC 88 55 M 1 55-59 1:42:20.5 7:49/M
29 Mark Stewart Greer SC 163 54 M 4 50-54 1:42:59.7 7:52/M
30 Jim Knauer Johnson City TN 97 51 M 5 50-54 1:43:05.2 7:52/M
31 Nadine Gnall Weaverville NC 225 42 F 2 40-44 1:43:09.5 7:52/M
32 Amy Tiller Canton NC 244 37 F 3 35-39 1:44:28.7 7:58/M
33 Bill Callaghan Decatur GA 20 59 M 2 55-59 1:44:29.4 7:59/M
34 John Michael Kledis Fletcher NC 96 34 M 5 30-34 1:44:38.1 7:59/M
35 Seth Temple Clyde NC 177 37 M 1 35-39 1:44:53.4 8:00/M
36 Ralph Caldwell Waynesville NC 19 59 M 3 55-59 1:45:01.9 8:01/M
37 Don Buckner Waynesville NC 236 47 M 6 45-49 1:45:41.0 8:04/M
38 Chris Southerland Weaverville NC 160 39 M 2 35-39 1:45:41.1 8:04/M
39 Kimmy Kopp Greenville SC 98 23 F 1 20-24 1:46:44.1 8:09/M
40 Andy Otten Fletcher NC 129 41 M 8 40-44 1:47:29.4 8:12/M
41 Cody Hulme Asheville NC 264 29 M 1 25-29 1:47:31.8 8:12/M
42 Christian Longacre Asheville NC 108 24 M 2 20-24 1:47:58.2 8:15/M
43 Angela Gerber Asheville NC 59 43 F 3 40-44 1:48:11.9 8:15/M
44 William Gaddis Waynesville NC 58 37 M 3 35-39 1:48:20.0 8:16/M
45 Mary Beth Freeman Asheville NC 56 40 F 4 40-44 1:48:24.7 8:16/M
46 David Cox Birmingham AL 252 39 M 4 35-39 1:48:25.3 8:17/M
47 Dakota Deeter Canton NC 219 16 M 1 15-19 1:48:25.8 8:17/M
48 Dan Hankley Fairview NC 71 46 M 7 45-49 1:48:26.1 8:17/M
49 Amber Moore 265 27 F 1 25-29 1:48:52.4 8:19/M
50 Ryan Richards Charlotte NC 139 30 M 6 30-34 1:48:54.0 8:19/M
51 Jennifer McCall Waynesville NC 113 35 F 4 35-39 1:49:04.8 8:20/M
52 Ron Wyant Burnsville NC 202 52 M 6 50-54 1:49:24.0 8:21/M
53 Earl Shrum Prospect KY 154 37 M 5 35-39 1:49:27.8 8:21/M
54 Rodney Conard Waynesville NC 34 37 M 6 35-39 1:49:52.5 8:23/M
55 Eric Yarrington Waynesville NC 203 40 M 9 40-44 1:49:59.1 8:24/M
56 Suzanne Bolding Asheville NC 7 49 F 1 45-49 1:50:04.5 8:24/M
57 Todd Hoke Hendersonville NC 81 43 M 10 40-44 1:50:38.8 8:27/M
58 Christian Hernandez Candler NC 75 41 M 11 40-44 1:52:16.9 8:34/M
59 Trish Hernandez Candler NC 77 39 F 5 35-39 1:52:16.9 8:34/M
60 Lisa Browning Candler NC 15 41 F 5 40-44 1:52:26.5 8:35/M
61 Rush Austin Burnsville NC 3 46 M 8 45-49 1:52:28.8 8:35/M
62 Michael Villazon Lake Junaluska NC 186 37 M 7 35-39 1:52:31.5 8:35/M
63 Bronwen McCormick Enka NC 114 44 F 6 40-44 1:52:42.8 8:36/M
64 Jane Revell Rock Hill SC 137 23 F 2 20-24 1:52:54.6 8:37/M
65 Jim Weaver Waynesville NC 223 43 M 12 40-44 1:53:24.9 8:39/M
66 Jeff Hammaker Franklin NC 69 41 M 13 40-44 1:53:27.8 8:40/M
67 Robin Tanner Atlanta GA 173 51 F 1 50-54 1:53:36.3 8:40/M
68 Janet Sword Asheville NC 172 40 F 7 40-44 1:53:42.4 8:41/M
69 Elizabeth Freeman Asheville NC 258 45 F 2 45-49 1:54:23.1 8:44/M
70 Ed Green Waynesville NC 206 63 M 2 60-64 1:54:54.5 8:46/M
71 Bob Whiting Weaverville NC 196 62 M 3 60-64 1:55:11.0 8:48/M
72 Courtney Morris Marion NC 122 28 F 2 25-29 1:55:24.5 8:49/M
73 Beverly Smith Marion NC 157 36 F 6 35-39 1:55:28.1 8:49/M
74 Chuck Parris Candler NC 130 53 M 7 50-54 1:55:53.0 8:51/M
75 Steven Sheppard Highlands NC 153 55 M 4 55-59 1:56:03.7 8:52/M
76 Eric Larson Raleigh NC 100 41 M 14 40-44 1:56:16.1 8:53/M
77 Sinta Lenahan Asheville NC 102 18 F 1 15-19 1:56:38.5 8:54/M
78 Peter Hessling Durham NC 78 60 M 4 60-64 1:57:21.3 8:57/M
79 Wayne McDaniel Franklin NC 259 50 M 8 50-54 1:57:30.9 8:58/M
80 Charlotte Sudano Browns Summit NC 166 29 F 3 25-29 1:58:01.1 9:01/M
81 Dan Myers Waynesville NC 124 40 M 15 40-44 1:58:24.6 9:02/M
82 Rick Tipton Weaverville NC 181 46 M 9 45-49 1:58:29.8 9:03/M
83 Tyler Rathbone Clyde NC 134 29 M 2 25-29 1:58:34.5 9:03/M
84 Britt Cannon Asheville NC 22 36 F 7 35-39 1:58:49.4 9:04/M
85 Lindsay Moody Asheville NC 121 35 F 8 35-39 1:59:11.5 9:06/M
86 Carrie Franklin Marion NC 55 33 F 2 30-34 1:59:32.2 9:07/M
87 Melanie Fox Asheville NC 53 46 F 3 45-49 1:59:35.3 9:08/M
88 Jennifer Jacobson Clyde NC 90 31 F 3 30-34 1:59:39.7 9:08/M
89 Gordon Emerson Lake Junaluska NC 47 58 M 5 55-59 1:59:41.2 9:08/M
90 Gracie Wadewitz Franklin NC 187 54 F 2 50-54 1:59:49.1 9:09/M
91 Jim Semon Asheville NC 148 65 M 1 65-69 1:59:53.7 9:09/M
92 Jeffrey Sharp Weaverville NC 149 52 M 9 50-54 1:59:55.1 9:09/M
93 Brenda Holcombe Cullowhee NC 82 40 F 8 40-44 2:00:00.1 9:10/M
94 Dayne Shuler Canton NC 253 19 M 2 15-19 2:00:20.1 9:11/M
95 Pegi OHagan Asheville NC 245 62 F 1 60-64 2:00:21.8 9:11/M
96 Melissa Ward Franklin NC 189 28 F 4 25-29 2:00:36.1 9:12/M
97 Anna Rotterman Knoxville TN 144 23 F 3 20-24 2:00:37.9 9:12/M
98 Jessica Allen Greenville SC 1 23 F 4 20-24 2:00:39.1 9:13/M
99 Martin Wadewitz Franklin NC 188 55 M 6 55-59 2:01:14.2 9:15/M
100 Donna Cope Canton NC 38 55 F 1 55-59 2:01:26.7 9:16/M
   
Place Name City Bib No Age Gender Age Group Total Time Pace
101 Naomi Cole Marion NC 32 45 F 4 45-49 2:01:45.7 9:18/M
102 Tom Kingsbury Candler NC 95 54 M 10 50-54 2:02:37.9 9:22/M
103 Shawn Earnest Waynesville NC 43 37 M 8 35-39 2:02:49.8 9:23/M
104 Michael Treat Candler NC 182 33 M 7 30-34 2:03:04.5 9:24/M
105 Karen Chavez Asheville NC 27 42 F 9 40-44 2:03:09.8 9:24/M
106 Leah Mathews Candler NC 111 43 F 10 40-44 2:03:14.2 9:24/M
107 Josh Cole Waynesville NC 31 37 M 9 35-39 2:04:01.9 9:28/M
108 John Highsmith Waynesville NC 80 54 M 11 50-54 2:04:07.6 9:28/M
109 Anne Carpenter 237 37 F 9 35-39 2:04:56.5 9:32/M
110 Shannon Pospihil Swannanoa NC 257 40 F 11 40-44 2:04:57.2 9:32/M
111 Aaria Cavany Clyde NC 26 34 F 4 30-34 2:05:36.3 9:35/M
112 Ben Fishback Canton NC 51 55 M 7 55-59 2:05:41.9 9:36/M
113 Joshua Conner Canton NC 36 29 M 3 25-29 2:06:01.4 9:37/M
114 Amanda Boone Asheville NC 8 28 F 5 25-29 2:06:01.4 9:37/M
115 Keith Corbeil Fletcher NC 39 52 M 12 50-54 2:06:11.1 9:38/M
116 Jake Miller Candler NC 117 13 M 1 1-14 2:06:26.9 9:39/M
117 Christopher Sawyer Alexander NC 147 47 M 10 45-49 2:06:35.9 9:40/M
118 Tiffany Elliott Marion NC 45 39 F 10 35-39 2:07:58.0 9:46/M
119 Kedron Hendley Marion NC 74 34 F 5 30-34 2:08:00.0 9:46/M
120 Mary Shears South Lyon MI 151 52 F 3 50-54 2:08:36.7 9:49/M
121 David Shears South Lyon MI 150 52 M 13 50-54 2:08:37.4 9:49/M
122 Laura Rollins Clyde NC 142 42 F 12 40-44 2:08:40.8 9:49/M
123 Mark Rollins Clyde NC 143 45 M 11 45-49 2:08:41.5 9:49/M
124 Shane St.esprit Knoxville TN 161 25 M 4 25-29 2:09:10.1 9:52/M
125 Jay Keever Sylva NC 93 45 M 12 45-49 2:09:31.8 9:53/M
126 Stephanie Boeshore Fairview NC 6 46 F 5 45-49 2:09:37.6 9:54/M
127 Robert Meredith Cartersville GA 232 54 M 14 50-54 2:10:09.9 9:56/M
128 Benita Auge Weaverville NC 2 64 F 2 60-64 2:10:16.5 9:57/M
129 Julie Keiper Waynesville NC 216 48 F 6 45-49 2:10:16.9 9:57/M
130 Dawn Roberts Weaverville NC 140 43 F 13 40-44 2:11:25.4 10:02/M
131 Jill Silver Marion NC 155 41 F 14 40-44 2:11:52.6 10:04/M
132 William White Clyde NC 195 30 M 8 30-34 2:12:36.2 10:07/M
133 Amanda Carden Knoxville TN 23 21 F 5 20-24 2:12:36.4 10:07/M
134 Jessie Tucker Candler NC 185 33 F 6 30-34 2:12:48.0 10:08/M
135 Shelby Watson Biltmore Lake NC 191 13 F 1 1-14 2:13:24.7 10:11/M
136 Laurie Sheppard Canton NC 152 43 F 15 40-44 2:13:36.5 10:12/M
137 Brooke Wetzel Asheville NC 194 35 F 11 35-39 2:13:41.4 10:12/M
138 Debra Cheap Candler NC 28 50 F 4 50-54 2:13:58.0 10:14/M
139 Michael Cope Canton NC 239 55 M 8 55-59 2:14:48.2 10:17/M
140 Ginny Turner Waynesville NC 228 47 F 7 45-49 2:14:48.9 10:17/M
141 Leslie Elliott Asheville NC 44 49 F 8 45-49 2:14:50.0 10:18/M
142 Leslie Thrasher Asheville NC 180 44 F 16 40-44 2:14:50.1 10:18/M
143 Melissa Tate Marion NC 174 41 F 17 40-44 2:15:53.4 10:22/M
144 Betsy Eppes Decatur GA 48 50 F 5 50-54 2:15:59.3 10:23/M
145 Peter Ciaccio Asheville NC 29 55 M 9 55-59 2:17:40.3 10:31/M
146 Sarah Treat Candler NC 183 33 F 7 30-34 2:18:41.7 10:35/M
147 Jennifer Summers Olin NC 168 41 F 18 40-44 2:20:03.9 10:41/M
148 Kim Williams Weaverville NC 199 38 F 12 35-39 2:20:30.6 10:44/M
149 Thomas Chapman Candler NC 229 63 M 5 60-64 2:20:33.3 10:44/M
150 Lorie Gardner Columbia SC 251 51 F 6 50-54 2:20:40.5 10:44/M
151 Tina Rice Marshall NC 138 36 F 13 35-39 2:20:45.4 10:45/M
152 Jay Miller Hendersonville NC 222 71 M 1 70-99 2:21:26.8 10:48/M
153 Virginia Fowler Cashiers NC 52 33 F 8 30-34 2:23:52.9 10:59/M
154 Elva Hernandez Las Vegas NV 76 64 F 3 60-64 2:25:01.6 11:04/M
155 Justina Goodman Canton NC 64 29 F 6 25-29 2:25:14.0 11:05/M
156 Gail Leshaw Franklin NC 103 58 F 2 55-59 2:25:39.7 11:07/M
157 Deborah Williams Cedar Mountain NC 197 57 F 3 55-59 2:26:02.4 11:09/M
158 Joey Johnson Asheville NC 91 55 F 4 55-59 2:27:42.1 11:16/M
159 Keith Smith Clyde NC 158 45 M 13 45-49 2:28:47.8 11:21/M
160 Angie Suddreth Candler NC 167 39 F 14 35-39 2:31:35.5 11:34/M
161 Jane Dame Candler NC 40 55 F 5 55-59 2:31:35.8 11:34/M
162 Ed Roley Clyde NC 141 60 M 6 60-64 2:32:28.5 11:38/M
163 Paul Heckert Cullowhee NC 204 59 M 10 55-59 2:32:54.8 11:40/M
164 Theresa Faires Statesville NC 49 34 F 9 30-34 2:34:45.5 11:49/M
165 Lindsey Dills Canton NC 41 33 F 10 30-34 2:36:12.2 11:55/M
166 Bill Redmond Owens Cross Roads AL 136 66 M 2 65-69 2:40:23.6 12:15/M
167 Metta Redding Brevard NC 135 34 F 11 30-34 2:45:35.8 12:38/M
168 Moriah Watson Biltmore Lake NC 190 41 F 19 40-44 2:50:39.3 13:02/M
169 Katie Kopp 208 25 F 7 25-29 2:51:07.8 13:04/M
170 Charlie Campbell Asheville NC 21 66 M 3 65-69 2:55:27.0 13:24/M
171 Heather Ferguson Canton NC 50 36 F 15 35-39 2:58:20.9 13:37/M

 

Leave a Reply